createdAt,value
2022-09-12T00:00:26.679Z,14.51
2022-09-12T00:01:26.757Z,14.56
2022-09-12T00:02:26.691Z,14.55
2022-09-12T00:03:26.629Z,14.51
2022-09-12T00:04:26.618Z,14.49
2022-09-12T00:05:26.607Z,14.43
2022-09-12T00:06:26.607Z,14.41
2022-09-12T00:07:26.578Z,14.38
2022-09-12T00:08:26.559Z,14.37
2022-09-12T00:09:26.556Z,14.36
2022-09-12T00:10:26.538Z,14.37
2022-09-12T00:11:26.528Z,14.40
2022-09-12T00:12:26.538Z,14.38
2022-09-12T00:13:26.506Z,14.38
2022-09-12T00:14:26.483Z,14.37
2022-09-12T00:15:26.473Z,14.37
2022-09-12T00:16:26.560Z,14.37
2022-09-12T00:17:26.469Z,14.36
2022-09-12T00:18:26.441Z,14.34
2022-09-12T00:19:26.419Z,14.34
2022-09-12T00:20:26.413Z,14.31
2022-09-12T00:21:26.392Z,14.30
2022-09-12T00:22:26.395Z,14.28
2022-09-12T00:23:26.371Z,14.25
2022-09-12T00:24:26.360Z,14.26
2022-09-12T00:25:26.340Z,14.23
2022-09-12T00:26:26.321Z,14.23
2022-09-12T00:27:26.331Z,14.22
2022-09-12T00:28:26.290Z,14.22
2022-09-12T00:29:26.318Z,14.19
2022-09-12T00:30:26.269Z,14.16
2022-09-12T00:31:26.326Z,14.13
2022-09-12T00:32:26.261Z,14.12
2022-09-12T00:33:26.232Z,14.11
2022-09-12T00:34:26.218Z,14.07
2022-09-12T00:35:26.223Z,14.03
2022-09-12T00:36:26.191Z,13.97
2022-09-12T00:37:26.192Z,13.97
2022-09-12T00:38:26.171Z,13.97
2022-09-12T00:39:26.151Z,13.97
2022-09-12T00:40:26.132Z,13.93
2022-09-12T00:41:26.131Z,13.93
2022-09-12T00:42:26.129Z,13.93
2022-09-12T00:43:26.102Z,13.94
2022-09-12T00:44:26.112Z,13.98
2022-09-12T00:45:26.098Z,13.95
2022-09-12T00:46:26.061Z,13.97
2022-09-12T00:47:26.071Z,13.94
2022-09-12T00:48:26.032Z,13.91
2022-09-12T00:49:26.020Z,13.85
2022-09-12T00:50:26.002Z,13.82
2022-09-12T00:51:26.021Z,13.80
2022-09-12T00:52:25.972Z,13.83
2022-09-12T00:53:25.995Z,13.82
2022-09-12T00:54:27.346Z,13.83
2022-09-12T00:55:26.053Z,13.85
2022-09-12T00:56:25.930Z,13.82
2022-09-12T00:57:25.915Z,13.80
2022-09-12T00:58:25.914Z,13.76
2022-09-12T00:59:25.883Z,13.71
2022-09-12T01:00:25.863Z,13.73
2022-09-12T01:01:28.263Z,13.76
2022-09-12T01:02:26.843Z,13.79
2022-09-12T01:03:25.852Z,13.80
2022-09-12T01:04:25.823Z,13.82
2022-09-12T01:05:25.851Z,13.82
2022-09-12T01:06:25.794Z,13.83
2022-09-12T01:07:25.781Z,13.83
2022-09-12T01:08:25.823Z,13.83
2022-09-12T01:09:25.759Z,13.82
2022-09-12T01:10:25.752Z,13.82
2022-09-12T01:11:25.722Z,13.82
2022-09-12T01:12:25.712Z,13.83
2022-09-12T01:13:25.721Z,13.82
2022-09-12T01:14:25.683Z,13.79
2022-09-12T01:15:25.673Z,13.78
2022-09-12T01:16:25.681Z,13.75
2022-09-12T01:17:25.643Z,13.70
2022-09-12T01:18:25.643Z,13.64
2022-09-12T01:19:25.613Z,13.60
2022-09-12T01:20:25.606Z,13.54
2022-09-12T01:21:25.593Z,13.52
2022-09-12T01:22:25.575Z,13.55
2022-09-12T01:23:25.583Z,13.55
2022-09-12T01:24:25.543Z,13.57
2022-09-12T01:25:25.540Z,13.58
2022-09-12T01:26:25.523Z,13.61
2022-09-12T01:27:25.515Z,13.62
2022-09-12T01:28:25.504Z,13.64
2022-09-12T01:29:25.489Z,13.61
2022-09-12T01:30:25.476Z,13.62
2022-09-12T01:31:25.457Z,13.62
2022-09-12T01:32:25.509Z,13.64
2022-09-12T01:33:25.452Z,13.64
2022-09-12T01:34:25.419Z,13.64
2022-09-12T01:35:25.404Z,13.64
2022-09-12T01:36:25.404Z,13.64
2022-09-12T01:37:25.376Z,13.64
2022-09-12T01:38:25.383Z,13.62
2022-09-12T01:39:25.346Z,13.61
2022-09-12T01:40:25.335Z,13.61
2022-09-12T01:41:25.324Z,13.58
2022-09-12T01:42:25.304Z,13.55
2022-09-12T01:43:25.314Z,13.52
2022-09-12T01:44:25.284Z,13.47
2022-09-12T01:45:25.308Z,13.45
2022-09-12T01:46:25.256Z,13.45
2022-09-12T01:47:25.245Z,13.45
2022-09-12T01:48:25.251Z,13.45
2022-09-12T01:49:25.216Z,13.45
2022-09-12T01:50:25.204Z,13.47
2022-09-12T01:51:25.193Z,13.45
2022-09-12T01:52:25.176Z,13.46
2022-09-12T01:53:25.185Z,13.46
2022-09-12T01:54:25.145Z,13.43
2022-09-12T01:55:25.142Z,13.42
2022-09-12T01:56:25.123Z,13.40
2022-09-12T01:57:25.112Z,13.39
2022-09-12T01:58:25.114Z,13.40
2022-09-12T01:59:25.092Z,13.40
2022-09-12T02:00:25.066Z,13.42
2022-09-12T02:01:25.130Z,13.43
2022-09-12T02:02:25.054Z,13.42
2022-09-12T02:03:25.045Z,13.39
2022-09-12T02:04:25.018Z,13.39
2022-09-12T02:05:25.006Z,13.36
2022-09-12T02:06:24.985Z,13.33
2022-09-12T02:07:24.976Z,13.31
2022-09-12T02:08:24.977Z,13.30
2022-09-12T02:09:24.951Z,13.28
2022-09-12T02:10:28.058Z,13.27
2022-09-12T02:11:25.927Z,13.24
2022-09-12T02:12:24.905Z,13.23
2022-09-12T02:13:24.913Z,13.21
2022-09-12T02:14:24.876Z,13.20
2022-09-12T02:15:24.884Z,13.21
2022-09-12T02:16:24.899Z,13.21
2022-09-12T02:17:24.846Z,13.20
2022-09-12T02:18:24.848Z,13.20
2022-09-12T02:19:24.817Z,13.19
2022-09-12T02:20:46.453Z,13.17
2022-09-12T02:21:25.788Z,13.17
2022-09-12T02:22:24.769Z,13.19
2022-09-12T02:23:24.776Z,13.19
2022-09-12T02:24:24.744Z,13.20
2022-09-12T02:25:24.737Z,13.21
2022-09-12T02:26:24.718Z,13.21
2022-09-12T02:27:24.707Z,13.20
2022-09-12T02:28:24.707Z,13.21
2022-09-12T02:29:24.688Z,13.23
2022-09-12T02:30:24.689Z,13.23
2022-09-12T02:31:24.657Z,13.23
2022-09-12T02:32:24.638Z,13.26
2022-09-12T02:33:24.646Z,13.24
2022-09-12T02:34:24.626Z,13.23
2022-09-12T02:35:24.604Z,13.21
2022-09-12T02:36:24.608Z,13.20
2022-09-12T02:37:24.588Z,13.20
2022-09-12T02:38:24.597Z,13.20
2022-09-12T02:39:24.548Z,13.19
2022-09-12T02:40:24.579Z,13.19
2022-09-12T02:41:24.527Z,13.20
2022-09-12T02:42:24.518Z,13.21
2022-09-12T02:43:24.519Z,13.21
2022-09-12T02:44:24.490Z,13.21
2022-09-12T02:45:24.468Z,13.23
2022-09-12T02:46:24.460Z,13.21
2022-09-12T02:47:24.439Z,13.21
2022-09-12T02:48:24.440Z,13.21
2022-09-12T02:49:24.429Z,13.21
2022-09-12T02:50:24.401Z,13.21
2022-09-12T02:51:24.391Z,13.23
2022-09-12T02:52:24.369Z,13.21
2022-09-12T02:53:24.378Z,13.23
2022-09-12T02:54:24.349Z,13.21
2022-09-12T02:55:24.340Z,13.24
2022-09-12T02:56:24.319Z,13.24
2022-09-12T02:57:24.310Z,13.26
2022-09-12T02:58:24.309Z,13.27
2022-09-12T02:59:24.279Z,13.27
2022-09-12T03:00:24.268Z,13.27
2022-09-12T03:01:24.292Z,13.27
2022-09-12T03:02:24.276Z,13.28
2022-09-12T03:03:24.249Z,13.28
2022-09-12T03:04:24.217Z,13.27
2022-09-12T03:05:24.210Z,13.24
2022-09-12T03:06:24.179Z,13.23
2022-09-12T03:07:24.180Z,13.24
2022-09-12T03:08:24.178Z,13.24
2022-09-12T03:09:24.149Z,13.23
2022-09-12T03:10:24.136Z,13.24
2022-09-12T03:11:24.127Z,13.24
2022-09-12T03:12:24.111Z,13.23
2022-09-12T03:13:24.159Z,13.23
2022-09-12T03:14:24.080Z,13.24
2022-09-12T03:15:24.070Z,13.27
2022-09-12T03:16:24.066Z,13.27
2022-09-12T03:17:24.051Z,13.27
2022-09-12T03:18:24.029Z,13.28
2022-09-12T03:19:24.041Z,13.27
2022-09-12T03:20:24.001Z,13.30
2022-09-12T03:21:23.997Z,13.33
2022-09-12T03:22:23.978Z,13.36
2022-09-12T03:23:23.983Z,13.36
2022-09-12T03:24:23.968Z,13.37
2022-09-12T03:25:23.941Z,13.40
2022-09-12T03:26:23.921Z,13.40
2022-09-12T03:27:23.918Z,13.39
2022-09-12T03:28:23.891Z,13.37
2022-09-12T03:29:23.902Z,13.40
2022-09-12T03:30:23.918Z,13.43
2022-09-12T03:31:23.864Z,13.43
2022-09-12T03:32:23.841Z,13.45
2022-09-12T03:33:23.840Z,13.46
2022-09-12T03:34:23.831Z,13.50
2022-09-12T03:35:23.811Z,13.52
2022-09-12T03:36:23.791Z,13.52
2022-09-12T03:37:23.781Z,13.52
2022-09-12T03:38:23.760Z,13.52
2022-09-12T03:39:23.773Z,13.55
2022-09-12T03:40:23.732Z,13.57
2022-09-12T03:41:23.722Z,13.58
2022-09-12T03:42:23.712Z,13.57
2022-09-12T03:43:23.702Z,13.57
2022-09-12T03:44:23.724Z,13.58
2022-09-12T03:45:23.683Z,13.55
2022-09-12T03:46:23.652Z,13.55
2022-09-12T03:47:23.652Z,13.52
2022-09-12T03:48:23.632Z,13.52
2022-09-12T03:49:23.644Z,13.49
2022-09-12T03:50:23.618Z,13.49
2022-09-12T03:51:23.595Z,13.49
2022-09-12T03:52:23.572Z,13.47
2022-09-12T03:53:23.573Z,13.45
2022-09-12T03:54:23.582Z,13.45
2022-09-12T03:55:23.570Z,13.47
2022-09-12T03:56:23.524Z,13.47
2022-09-12T03:57:23.517Z,13.47
2022-09-12T03:58:23.502Z,13.46
2022-09-12T03:59:23.524Z,13.45
2022-09-12T04:00:23.473Z,13.43
2022-09-12T04:01:23.556Z,13.42
2022-09-12T04:02:23.467Z,13.40
2022-09-12T04:03:23.453Z,13.42
2022-09-12T04:04:23.434Z,13.42
2022-09-12T04:05:23.406Z,13.40
2022-09-12T04:06:23.384Z,13.42
2022-09-12T04:07:23.384Z,13.40
2022-09-12T04:08:23.366Z,13.43
2022-09-12T04:09:23.373Z,13.45
2022-09-12T04:10:23.355Z,13.46
2022-09-12T04:11:23.324Z,13.46
2022-09-12T04:12:23.306Z,13.47
2022-09-12T04:13:23.299Z,13.47
2022-09-12T04:14:23.294Z,13.46
2022-09-12T04:15:23.274Z,13.43
2022-09-12T04:16:23.284Z,13.42
2022-09-12T04:17:23.295Z,13.40
2022-09-12T04:18:23.232Z,13.37
2022-09-12T04:19:23.232Z,13.36
2022-09-12T04:20:23.206Z,13.36
2022-09-12T04:21:23.184Z,13.37
2022-09-12T04:22:23.180Z,13.37
2022-09-12T04:23:23.164Z,13.37
2022-09-12T04:24:23.175Z,13.36
2022-09-12T04:25:23.135Z,13.37
2022-09-12T04:26:23.124Z,13.40
2022-09-12T04:27:23.105Z,13.37
2022-09-12T04:28:23.124Z,13.37
2022-09-12T04:29:23.079Z,13.39
2022-09-12T04:30:23.095Z,13.39
2022-09-12T04:31:23.066Z,13.39
2022-09-12T04:32:23.056Z,13.39
2022-09-12T04:33:23.026Z,13.37
2022-09-12T04:34:23.045Z,13.39
2022-09-12T04:35:23.005Z,13.39
2022-09-12T04:36:22.993Z,13.39
2022-09-12T04:37:22.976Z,13.42
2022-09-12T04:38:22.966Z,13.42
2022-09-12T04:39:22.945Z,13.42
2022-09-12T04:40:22.970Z,13.42
2022-09-12T04:41:22.917Z,13.42
2022-09-12T04:42:22.923Z,13.39
2022-09-12T04:43:22.887Z,13.36
2022-09-12T04:44:22.885Z,13.33
2022-09-12T04:45:22.876Z,13.31
2022-09-12T04:46:22.884Z,13.30
2022-09-12T04:47:22.847Z,13.30
2022-09-12T04:48:22.885Z,13.27
2022-09-12T04:49:22.815Z,13.28
2022-09-12T04:50:22.822Z,13.28
2022-09-12T04:51:22.787Z,13.30
2022-09-12T04:52:22.784Z,13.31
2022-09-12T04:53:22.766Z,13.30
2022-09-12T04:54:22.757Z,13.30
2022-09-12T04:55:22.766Z,13.30
2022-09-12T04:56:22.728Z,13.30
2022-09-12T04:57:22.715Z,13.28
2022-09-12T04:58:22.699Z,13.30
2022-09-12T04:59:22.705Z,13.30
2022-09-12T05:00:22.677Z,13.28
2022-09-12T05:01:22.729Z,13.26
2022-09-12T05:02:22.734Z,13.27
2022-09-12T05:03:22.628Z,13.27
2022-09-12T05:04:22.638Z,13.26
2022-09-12T05:05:22.598Z,13.24
2022-09-12T05:06:22.596Z,13.23
2022-09-12T05:07:22.588Z,13.21
2022-09-12T05:08:22.565Z,13.21
2022-09-12T05:09:22.569Z,13.20
2022-09-12T05:10:22.537Z,13.20
2022-09-12T05:11:24.923Z,13.21
2022-09-12T05:12:22.507Z,13.21
2022-09-12T05:13:22.497Z,13.21
2022-09-12T05:14:22.498Z,13.21
2022-09-12T05:15:22.468Z,13.23
2022-09-12T05:16:22.493Z,13.23
2022-09-12T05:17:22.445Z,13.23
2022-09-12T05:18:22.461Z,13.23
2022-09-12T05:19:22.441Z,13.23
2022-09-12T05:20:22.409Z,13.26
2022-09-12T05:21:22.406Z,13.36
2022-09-12T05:22:22.408Z,13.52
2022-09-12T05:23:22.381Z,13.65
2022-09-12T05:24:22.378Z,13.73
2022-09-12T05:25:22.328Z,13.85
2022-09-12T05:26:22.393Z,13.91
2022-09-12T05:27:22.310Z,13.98
2022-09-12T05:28:22.336Z,13.98
2022-09-12T05:29:22.289Z,13.93
2022-09-12T05:30:22.361Z,13.86
2022-09-12T05:31:22.277Z,13.80
2022-09-12T05:32:22.246Z,13.80
2022-09-12T05:33:25.068Z,13.79
2022-09-12T05:34:22.221Z,13.73
2022-09-12T05:35:22.217Z,13.67
2022-09-12T05:36:22.190Z,13.64
2022-09-12T05:37:22.180Z,13.60
2022-09-12T05:38:22.195Z,13.58
2022-09-12T05:39:22.151Z,13.54
2022-09-12T05:40:22.785Z,13.49
2022-09-12T05:41:29.259Z,13.46
2022-09-12T05:42:22.147Z,13.43
2022-09-12T05:43:22.132Z,13.43
2022-09-12T05:44:22.124Z,13.40
2022-09-12T05:45:22.147Z,13.40
2022-09-12T05:46:22.105Z,13.42
2022-09-12T05:47:22.075Z,13.42
2022-09-12T05:48:22.083Z,13.40
2022-09-12T05:49:22.054Z,13.40
2022-09-12T05:50:22.096Z,13.39
2022-09-12T05:51:22.026Z,13.37
2022-09-12T05:52:22.018Z,13.37
2022-09-12T05:53:21.999Z,13.33
2022-09-12T05:54:22.012Z,13.36
2022-09-12T05:55:21.979Z,13.36
2022-09-12T05:56:21.974Z,13.37
2022-09-12T05:57:21.946Z,13.36
2022-09-12T05:58:21.919Z,13.33
2022-09-12T05:59:21.938Z,13.33
2022-09-12T06:00:21.915Z,13.36
2022-09-12T06:01:21.966Z,13.36
2022-09-12T06:02:21.926Z,13.36
2022-09-12T06:03:21.857Z,13.31
2022-09-12T06:04:21.845Z,13.28
2022-09-12T06:05:21.837Z,13.30
2022-09-12T06:06:21.825Z,13.28
2022-09-12T06:07:21.800Z,13.31
2022-09-12T06:08:21.798Z,13.31
2022-09-12T06:09:21.773Z,13.27
2022-09-12T06:10:21.788Z,13.28
2022-09-12T06:11:21.757Z,13.31
2022-09-12T06:12:21.747Z,13.31
2022-09-12T06:13:21.729Z,13.31
2022-09-12T06:14:21.730Z,13.31
2022-09-12T06:15:21.709Z,13.31
2022-09-12T06:16:21.762Z,13.33
2022-09-12T06:17:21.681Z,13.37
2022-09-12T06:18:21.684Z,13.42
2022-09-12T06:19:21.731Z,13.43
2022-09-12T06:20:21.657Z,13.43
2022-09-12T06:21:21.619Z,13.45
2022-09-12T06:22:21.641Z,13.46
2022-09-12T06:23:21.626Z,13.45
2022-09-12T06:24:21.614Z,13.45
2022-09-12T06:25:21.588Z,13.46
2022-09-12T06:26:21.708Z,13.46
2022-09-12T06:27:21.548Z,13.47
2022-09-12T06:28:21.548Z,13.47
2022-09-12T06:29:21.528Z,13.47
2022-09-12T06:30:25.292Z,13.50
2022-09-12T06:31:21.518Z,13.50
2022-09-12T06:32:21.483Z,13.50
2022-09-12T06:33:21.460Z,13.47
2022-09-12T06:34:21.481Z,13.52
2022-09-12T06:35:21.478Z,13.52
2022-09-12T06:36:21.432Z,13.54
2022-09-12T06:37:21.400Z,13.54
2022-09-12T06:38:21.409Z,13.54
2022-09-12T06:39:21.401Z,13.57
2022-09-12T06:40:21.425Z,13.58
2022-09-12T06:41:21.358Z,13.58
2022-09-12T06:42:21.350Z,13.58
2022-09-12T06:43:21.340Z,13.58
2022-09-12T06:44:21.319Z,13.61
2022-09-12T06:45:21.319Z,13.62
2022-09-12T06:46:21.379Z,13.65
2022-09-12T06:47:21.279Z,13.67
2022-09-12T06:48:21.271Z,13.67
2022-09-12T06:49:21.248Z,13.55
2022-09-12T06:50:21.260Z,13.47
2022-09-12T06:51:21.223Z,13.37
2022-09-12T06:52:21.224Z,13.33
2022-09-12T06:53:21.200Z,13.33
2022-09-12T06:54:21.194Z,13.36
2022-09-12T06:55:25.786Z,13.40
2022-09-12T06:56:22.163Z,13.43
2022-09-12T06:57:21.153Z,13.49
2022-09-12T06:58:21.144Z,13.52
2022-09-12T06:59:21.121Z,13.55
2022-09-12T07:00:21.132Z,13.61
2022-09-12T07:01:21.263Z,13.62
2022-09-12T07:02:21.119Z,13.54
2022-09-12T07:03:21.071Z,13.45
2022-09-12T07:04:21.062Z,13.43
2022-09-12T07:05:21.040Z,13.43
2022-09-12T07:06:21.043Z,13.43
2022-09-12T07:07:21.011Z,13.46
2022-09-12T07:08:21.003Z,13.52
2022-09-12T07:09:20.981Z,13.57
2022-09-12T07:10:22.429Z,13.62
2022-09-12T07:11:20.985Z,13.67
2022-09-12T07:12:20.950Z,13.73
2022-09-12T07:13:21.392Z,13.82
2022-09-12T07:14:20.932Z,13.87
2022-09-12T07:15:20.912Z,13.97
2022-09-12T07:16:21.076Z,14.03
2022-09-12T07:17:20.899Z,14.07
2022-09-12T07:18:20.871Z,14.07
2022-09-12T07:19:20.852Z,14.05
2022-09-12T07:20:20.842Z,14.04
2022-09-12T07:21:20.836Z,14.04
2022-09-12T07:22:20.813Z,14.04
2022-09-12T07:23:20.804Z,14.05
2022-09-12T07:24:20.796Z,14.08
2022-09-12T07:25:20.791Z,14.08
2022-09-12T07:26:20.785Z,14.05
2022-09-12T07:27:20.744Z,14.04
2022-09-12T07:28:20.774Z,14.01
2022-09-12T07:29:37.625Z,13.98
2022-09-12T07:30:21.713Z,13.95
2022-09-12T07:31:20.707Z,13.94
2022-09-12T07:32:20.682Z,13.91
2022-09-12T07:33:20.665Z,13.93
2022-09-12T07:34:20.661Z,13.95
2022-09-12T07:35:20.636Z,13.97
2022-09-12T07:36:20.655Z,14.01
2022-09-12T07:37:20.604Z,14.04
2022-09-12T07:38:20.603Z,14.08
2022-09-12T07:39:20.586Z,14.11
2022-09-12T07:40:20.632Z,14.18
2022-09-12T07:41:20.574Z,14.22
2022-09-12T07:42:20.565Z,14.20
2022-09-12T07:43:20.525Z,14.19
2022-09-12T07:44:20.520Z,14.20
2022-09-12T07:45:20.537Z,14.20
2022-09-12T07:46:20.541Z,14.23
2022-09-12T07:47:20.474Z,14.28
2022-09-12T07:48:20.512Z,14.34
2022-09-12T07:49:20.516Z,14.40
2022-09-12T07:50:20.473Z,14.44
2022-09-12T07:51:20.454Z,14.52
2022-09-12T07:52:20.452Z,14.58
2022-09-12T07:53:20.494Z,14.62
2022-09-12T07:54:20.404Z,14.68
2022-09-12T07:55:20.401Z,14.73
2022-09-12T07:56:20.375Z,14.78
2022-09-12T07:57:20.347Z,14.82
2022-09-12T07:58:20.354Z,14.87
2022-09-12T07:59:41.470Z,14.89
2022-09-12T08:00:21.307Z,14.93
2022-09-12T08:01:20.354Z,14.97
2022-09-12T08:02:20.347Z,15.00
2022-09-12T08:03:20.265Z,15.05
2022-09-12T08:04:20.245Z,15.07
2022-09-12T08:05:20.235Z,15.12
2022-09-12T08:06:20.257Z,15.11
2022-09-12T08:07:20.197Z,15.12
2022-09-12T08:08:20.195Z,15.14
2022-09-12T08:09:20.182Z,15.18
2022-09-12T08:10:20.176Z,15.17
2022-09-12T08:11:20.174Z,15.18
2022-09-12T08:12:20.165Z,15.19
2022-09-12T08:13:20.123Z,15.22
2022-09-12T08:14:20.123Z,15.19
2022-09-12T08:15:20.093Z,15.19
2022-09-12T08:16:20.105Z,15.18
2022-09-12T08:17:20.076Z,15.17
2022-09-12T08:18:20.094Z,15.12
2022-09-12T08:19:20.050Z,15.08
2022-09-12T08:20:20.036Z,15.07
2022-09-12T08:21:20.045Z,15.08
2022-09-12T08:22:20.017Z,15.15
2022-09-12T08:23:19.993Z,15.23
2022-09-12T08:24:19.994Z,15.26
2022-09-12T08:25:19.998Z,15.30
2022-09-12T08:26:19.976Z,15.36
2022-09-12T08:27:19.947Z,15.43
2022-09-12T08:28:19.937Z,15.47
2022-09-12T08:29:19.913Z,15.51
2022-09-12T08:30:19.914Z,15.55
2022-09-12T08:31:19.935Z,15.59
2022-09-12T08:32:19.905Z,15.62
2022-09-12T08:33:19.867Z,15.65
2022-09-12T08:34:19.857Z,15.63
2022-09-12T08:35:19.840Z,15.63
2022-09-12T08:36:19.844Z,15.66
2022-09-12T08:37:19.818Z,15.70
2022-09-12T08:38:19.808Z,15.75
2022-09-12T08:39:19.788Z,15.78
2022-09-12T08:40:19.798Z,15.81
2022-09-12T08:41:19.761Z,15.84
2022-09-12T08:42:19.762Z,15.88
2022-09-12T08:43:19.736Z,15.91
2022-09-12T08:44:19.722Z,15.94
2022-09-12T08:45:19.708Z,15.99
2022-09-12T08:46:19.736Z,16.05
2022-09-12T08:47:19.709Z,16.09
2022-09-12T08:48:19.679Z,16.16
2022-09-12T08:49:19.659Z,16.18
2022-09-12T08:50:19.670Z,16.24
2022-09-12T08:51:19.629Z,16.26
2022-09-12T08:52:19.637Z,16.29
2022-09-12T08:53:19.610Z,16.32
2022-09-12T08:54:19.588Z,16.36
2022-09-12T08:55:19.579Z,16.37
2022-09-12T08:56:19.577Z,16.43
2022-09-12T08:57:19.560Z,16.46
2022-09-12T08:58:19.538Z,16.51
2022-09-12T08:59:19.529Z,16.57
2022-09-12T09:00:19.567Z,16.62
2022-09-12T09:01:19.528Z,16.65
2022-09-12T09:02:19.496Z,16.66
2022-09-12T09:03:19.490Z,16.73
2022-09-12T09:04:19.460Z,16.76
2022-09-12T09:05:19.452Z,16.77
2022-09-12T09:06:19.455Z,16.80
2022-09-12T09:07:19.419Z,16.83
2022-09-12T09:08:19.408Z,16.83
2022-09-12T09:09:19.400Z,16.83
2022-09-12T09:10:19.438Z,16.84
2022-09-12T09:11:19.381Z,16.87
2022-09-12T09:12:19.338Z,16.91
2022-09-12T09:13:19.366Z,16.91
2022-09-12T09:14:19.327Z,16.94
2022-09-12T09:15:19.329Z,16.98
2022-09-12T09:16:19.381Z,16.99
2022-09-12T09:17:19.282Z,17.05
2022-09-12T09:18:19.272Z,17.09
2022-09-12T09:19:19.262Z,17.13
2022-09-12T09:20:19.480Z,17.17
2022-09-12T09:21:19.262Z,17.23
2022-09-12T09:22:19.220Z,17.27
2022-09-12T09:23:19.214Z,17.28
2022-09-12T09:24:19.192Z,17.31
2022-09-12T09:25:22.751Z,17.34
2022-09-12T09:26:19.170Z,17.37
2022-09-12T09:27:39.473Z,17.41
2022-09-12T09:28:20.163Z,17.47
2022-09-12T09:29:19.132Z,17.49
2022-09-12T09:30:19.247Z,17.53
2022-09-12T09:31:19.120Z,17.57
2022-09-12T09:32:19.104Z,17.63
2022-09-12T09:33:19.073Z,17.69
2022-09-12T09:34:19.053Z,17.73
2022-09-12T09:35:19.049Z,17.78
2022-09-12T09:36:19.043Z,17.82
2022-09-12T09:37:19.052Z,17.87
2022-09-12T09:38:19.002Z,17.90
2022-09-12T09:39:19.003Z,17.93
2022-09-12T09:40:19.139Z,17.95
2022-09-12T09:41:18.982Z,17.98
2022-09-12T09:42:23.793Z,18.05
2022-09-12T09:43:18.950Z,18.08
2022-09-12T09:44:18.937Z,18.11
2022-09-12T09:45:18.942Z,18.15
2022-09-12T09:46:18.969Z,18.19
2022-09-12T09:47:18.922Z,18.26
2022-09-12T09:48:18.875Z,18.28
2022-09-12T09:49:18.864Z,18.31
2022-09-12T09:50:18.844Z,18.33
2022-09-12T09:51:18.835Z,18.34
2022-09-12T09:52:18.826Z,18.36
2022-09-12T09:53:18.805Z,18.41
2022-09-12T09:54:18.794Z,18.42
2022-09-12T09:55:18.797Z,18.46
2022-09-12T09:56:21.519Z,18.51
2022-09-12T09:57:18.766Z,18.52
2022-09-12T09:58:18.736Z,18.53
2022-09-12T09:59:18.733Z,18.58
2022-09-12T10:00:18.715Z,18.61
2022-09-12T10:01:18.745Z,18.66
2022-09-12T10:02:23.687Z,18.70
2022-09-12T10:03:19.684Z,18.73
2022-09-12T10:04:18.687Z,18.76
2022-09-12T10:05:18.675Z,18.78
2022-09-12T10:06:18.647Z,18.81
2022-09-12T10:07:18.637Z,18.85
2022-09-12T10:08:18.613Z,18.91
2022-09-12T10:09:18.630Z,18.96
2022-09-12T10:10:18.586Z,18.96
2022-09-12T10:11:18.567Z,18.96
2022-09-12T10:12:18.583Z,19.00
2022-09-12T10:13:18.546Z,19.00
2022-09-12T10:14:18.536Z,19.01
2022-09-12T10:15:18.518Z,19.07
2022-09-12T10:16:18.533Z,19.04
2022-09-12T10:17:18.508Z,19.05
2022-09-12T10:18:18.478Z,19.09
2022-09-12T10:19:18.468Z,19.11
2022-09-12T10:20:21.435Z,19.15
2022-09-12T10:21:18.457Z,19.16
2022-09-12T10:22:18.450Z,19.16
2022-09-12T10:23:18.418Z,19.17
2022-09-12T10:24:18.397Z,19.17
2022-09-12T10:25:18.387Z,19.22
2022-09-12T10:26:18.366Z,19.29
2022-09-12T10:27:18.379Z,19.35
2022-09-12T10:28:18.347Z,19.41
2022-09-12T10:29:18.339Z,19.48
2022-09-12T10:30:18.328Z,19.57
2022-09-12T10:31:18.482Z,19.63
2022-09-12T10:32:18.300Z,19.71
2022-09-12T10:33:18.269Z,19.77
2022-09-12T10:34:18.279Z,19.82
2022-09-12T10:35:18.250Z,19.89
2022-09-12T10:36:18.238Z,19.93
2022-09-12T10:37:18.250Z,19.99
2022-09-12T10:38:18.200Z,20.03
2022-09-12T10:39:18.198Z,20.10
2022-09-12T10:40:18.235Z,20.14
2022-09-12T10:41:18.170Z,20.19
2022-09-12T10:42:22.854Z,20.29
2022-09-12T10:43:19.187Z,20.37
2022-09-12T10:44:18.130Z,20.49
2022-09-12T10:45:18.119Z,20.58
2022-09-12T10:46:18.256Z,20.66
2022-09-12T10:47:18.112Z,20.73
2022-09-12T10:48:18.072Z,20.77
2022-09-12T10:49:18.062Z,20.82
2022-09-12T10:50:22.848Z,20.89
2022-09-12T10:51:19.040Z,20.96
2022-09-12T10:52:18.043Z,21.05
2022-09-12T10:53:18.110Z,21.10
2022-09-12T10:54:18.001Z,21.14
2022-09-12T10:55:17.982Z,21.23
2022-09-12T10:56:17.964Z,21.26
2022-09-12T10:57:17.980Z,21.32
2022-09-12T10:58:17.942Z,21.37
2022-09-12T10:59:20.129Z,21.41
2022-09-12T11:00:18.191Z,21.48
2022-09-12T11:01:17.963Z,21.56
2022-09-12T11:02:18.032Z,21.60
2022-09-12T11:03:18.665Z,21.63
2022-09-12T11:04:18.061Z,21.66
2022-09-12T11:05:22.432Z,21.66
2022-09-12T11:06:18.106Z,21.68
2022-09-12T11:07:18.073Z,21.70
2022-09-12T11:08:17.832Z,21.74
2022-09-12T11:09:17.812Z,21.80
2022-09-12T11:10:17.794Z,21.83
2022-09-12T11:11:17.774Z,21.84
2022-09-12T11:12:17.754Z,21.89
2022-09-12T11:13:17.764Z,21.89
2022-09-12T11:14:17.725Z,21.83
2022-09-12T11:15:17.739Z,21.83
2022-09-12T11:16:17.770Z,21.88
2022-09-12T11:17:17.829Z,21.89
2022-09-12T11:18:17.705Z,21.92
2022-09-12T11:19:17.718Z,21.94
2022-09-12T11:20:17.660Z,21.99
2022-09-12T11:21:17.646Z,22.00
2022-09-12T11:22:17.636Z,22.07
2022-09-12T11:23:17.615Z,22.14
2022-09-12T11:24:17.664Z,22.14
2022-09-12T11:25:17.708Z,22.19
2022-09-12T11:26:17.644Z,22.25
2022-09-12T11:27:17.665Z,22.28
2022-09-12T11:28:17.651Z,22.33
2022-09-12T11:29:17.606Z,22.36
2022-09-12T11:30:17.556Z,22.37
2022-09-12T11:31:17.623Z,22.43
2022-09-12T11:32:17.627Z,22.40
2022-09-12T11:33:17.559Z,22.40
2022-09-12T11:34:17.537Z,22.38
2022-09-12T11:35:17.895Z,22.34
2022-09-12T11:36:17.731Z,22.31
2022-09-12T11:37:18.255Z,22.31
2022-09-12T11:38:17.440Z,22.34
2022-09-12T11:39:17.470Z,22.37
2022-09-12T11:40:17.538Z,22.40
2022-09-12T11:41:17.388Z,22.44
2022-09-12T11:42:24.463Z,22.49
2022-09-12T11:43:17.354Z,22.55
2022-09-12T11:44:17.337Z,22.59
2022-09-12T11:45:17.323Z,22.62
2022-09-12T11:46:17.343Z,22.68
2022-09-12T11:47:17.313Z,22.71
2022-09-12T11:48:17.265Z,22.76
2022-09-12T11:49:17.278Z,22.83
2022-09-12T11:50:17.267Z,22.86
2022-09-12T11:51:17.241Z,22.89
2022-09-12T11:52:17.228Z,22.92
2022-09-12T11:53:17.275Z,22.96
2022-09-12T11:54:17.203Z,23.01
2022-09-12T11:55:17.196Z,23.06
2022-09-12T11:56:17.168Z,23.07
2022-09-12T11:57:17.158Z,23.08
2022-09-12T11:58:17.165Z,23.16
2022-09-12T11:59:17.145Z,23.17
2022-09-12T12:00:17.116Z,23.20
2022-09-12T12:01:17.136Z,23.25
2022-09-12T12:02:17.116Z,23.33
2022-09-12T12:03:17.142Z,23.36
2022-09-12T12:04:17.076Z,23.40
2022-09-12T12:05:17.069Z,23.42
2022-09-12T12:06:17.037Z,23.47
2022-09-12T12:07:17.027Z,23.48
2022-09-12T12:08:17.028Z,23.52
2022-09-12T12:09:17.007Z,23.56
2022-09-12T12:10:16.988Z,23.56
2022-09-12T12:11:16.978Z,23.58
2022-09-12T12:12:16.961Z,23.62
2022-09-12T12:13:16.959Z,23.63
2022-09-12T12:14:16.937Z,23.67
2022-09-12T12:15:16.929Z,23.64
2022-09-12T12:16:16.940Z,23.69
2022-09-12T12:17:16.900Z,23.74
2022-09-12T12:18:16.899Z,23.79
2022-09-12T12:19:16.869Z,23.85
2022-09-12T12:20:16.872Z,23.84
2022-09-12T12:21:16.849Z,23.91
2022-09-12T12:22:16.890Z,23.99
2022-09-12T12:23:16.839Z,23.99
2022-09-12T12:24:16.817Z,23.99
2022-09-12T12:25:21.285Z,24.01
2022-09-12T12:26:17.777Z,24.01
2022-09-12T12:27:16.783Z,24.09
2022-09-12T12:28:16.768Z,24.18
2022-09-12T12:29:16.749Z,24.22
2022-09-12T12:30:16.720Z,24.22
2022-09-12T12:31:16.792Z,24.18
2022-09-12T12:32:16.701Z,24.09
2022-09-12T12:33:16.734Z,24.13
2022-09-12T12:34:16.678Z,24.21
2022-09-12T12:35:16.671Z,24.29
2022-09-12T12:36:16.658Z,24.38
2022-09-12T12:37:16.642Z,24.48
2022-09-12T12:38:16.628Z,24.56
2022-09-12T12:39:16.631Z,24.59
2022-09-12T12:40:16.644Z,24.53
2022-09-12T12:41:16.591Z,24.31
2022-09-12T12:42:19.158Z,24.13
2022-09-12T12:43:16.562Z,23.92
2022-09-12T12:44:16.554Z,23.77
2022-09-12T12:45:16.536Z,23.67
2022-09-12T12:46:16.580Z,23.77
2022-09-12T12:47:16.504Z,23.88
2022-09-12T12:48:16.503Z,23.96
2022-09-12T12:49:16.493Z,24.10
2022-09-12T12:50:16.474Z,24.16
2022-09-12T12:51:16.444Z,24.26
2022-09-12T12:52:16.485Z,24.37